sensor_id;sensor_type;location;lat;lon;timestamp;temperature;humidity
51559;DHT22;61650;48.882;2.092;2023-04-01T00:00:24;9.90;85.20
51559;DHT22;61650;48.882;2.092;2023-04-01T00:02:49;9.80;86.40
51559;DHT22;61650;48.882;2.092;2023-04-01T00:05:15;9.80;87.20
51559;DHT22;61650;48.882;2.092;2023-04-01T00:07:42;9.80;87.30
51559;DHT22;61650;48.882;2.092;2023-04-01T00:10:10;9.80;87.50
51559;DHT22;61650;48.882;2.092;2023-04-01T00:12:37;9.80;87.60
51559;DHT22;61650;48.882;2.092;2023-04-01T00:15:04;9.80;87.00
51559;DHT22;61650;48.882;2.092;2023-04-01T00:17:31;9.80;87.30
51559;DHT22;61650;48.882;2.092;2023-04-01T00:19:57;9.80;87.20
51559;DHT22;61650;48.882;2.092;2023-04-01T00:22:24;9.80;87.60
51559;DHT22;61650;48.882;2.092;2023-04-01T00:24:50;9.80;87.60
51559;DHT22;61650;48.882;2.092;2023-04-01T00:27:16;9.80;87.60
51559;DHT22;61650;48.882;2.092;2023-04-01T00:29:45;9.80;87.30
51559;DHT22;61650;48.882;2.092;2023-04-01T00:32:12;9.80;88.00
51559;DHT22;61650;48.882;2.092;2023-04-01T00:34:38;9.80;88.40
51559;DHT22;61650;48.882;2.092;2023-04-01T00:37:05;9.70;88.70
51559;DHT22;61650;48.882;2.092;2023-04-01T00:39:31;9.70;89.00
51559;DHT22;61650;48.882;2.092;2023-04-01T00:41:58;9.70;88.90
51559;DHT22;61650;48.882;2.092;2023-04-01T00:44:27;9.70;89.10
51559;DHT22;61650;48.882;2.092;2023-04-01T00:46:53;9.70;89.00
51559;DHT22;61650;48.882;2.092;2023-04-01T00:49:31;9.70;88.80
51559;DHT22;61650;48.882;2.092;2023-04-01T00:52:00;9.70;89.40
51559;DHT22;61650;48.882;2.092;2023-04-01T00:54:27;9.60;90.70
51559;DHT22;61650;48.882;2.092;2023-04-01T00:57:11;9.50;92.10
51559;DHT22;61650;48.882;2.092;2023-04-01T00:59:46;9.30;93.50
51559;DHT22;61650;48.882;2.092;2023-04-01T01:02:15;9.20;95.60
51559;DHT22;61650;48.882;2.092;2023-04-01T01:04:41;9.10;95.80
51559;DHT22;61650;48.882;2.092;2023-04-01T01:12:50;9.00;96.60
51559;DHT22;61650;48.882;2.092;2023-04-01T01:23:57;9.20;94.20
51559;DHT22;61650;48.882;2.092;2023-04-01T01:32:18;9.20;94.80
51559;DHT22;61650;48.882;2.092;2023-04-01T01:37:33;9.10;96.80
51559;DHT22;61650;48.882;2.092;2023-04-01T01:40:03;9.00;97.90
51559;DHT22;61650;48.882;2.092;2023-04-01T01:42:31;8.90;99.90
51559;DHT22;61650;48.882;2.092;2023-04-01T01:44:58;8.80;99.90
51559;DHT22;61650;48.882;2.092;2023-04-01T01:47:26;8.70;99.90
51559;DHT22;61650;48.882;2.092;2023-04-01T01:49:53;8.70;99.90
51559;DHT22;61650;48.882;2.092;2023-04-01T01:52:21;8.70;99.90
51559;DHT22;61650;48.882;2.092;2023-04-01T01:54:51;8.80;99.90
51559;DHT22;61650;48.882;2.092;2023-04-01T01:57:22;8.80;99.90
51559;DHT22;61650;48.882;2.092;2023-04-01T01:59:49;8.70;99.90
51559;DHT22;61650;48.882;2.092;2023-04-01T02:02:16;8.70;99.90
51559;DHT22;61650;48.882;2.092;2023-04-01T02:04:43;8.80;99.90
51559;DHT22;61650;48.882;2.092;2023-04-01T02:07:21;8.70;99.90
51559;DHT22;61650;48.882;2.092;2023-04-01T02:09:48;8.70;99.90
51559;DHT22;61650;48.882;2.092;2023-04-01T02:12:15;8.70;99.90
51559;DHT22;61650;48.882;2.092;2023-04-01T02:15:08;8.70;99.90
51559;DHT22;61650;48.882;2.092;2023-04-01T02:17:39;8.70;99.90
51559;DHT22;61650;48.882;2.092;2023-04-01T02:20:20;8.70;99.90
51559;DHT22;61650;48.882;2.092;2023-04-01T02:22:55;8.80;99.90
51559;DHT22;61650;48.882;2.092;2023-04-01T02:25:25;8.80;99.90
51559;DHT22;61650;48.882;2.092;2023-04-01T02:27:51;8.90;98.50
51559;DHT22;61650;48.882;2.092;2023-04-01T02:30:18;9.00;98.30
51559;DHT22;61650;48.882;2.092;2023-04-01T02:32:45;9.10;97.00
51559;DHT22;61650;48.882;2.092;2023-04-01T02:35:13;9.10;95.80
51559;DHT22;61650;48.882;2.092;2023-04-01T02:37:41;9.20;94.60
51559;DHT22;61650;48.882;2.092;2023-04-01T02:40:09;9.20;94.20
51559;DHT22;61650;48.882;2.092;2023-04-01T02:42:36;9.20;94.70
51559;DHT22;61650;48.882;2.092;2023-04-01T02:45:02;9.10;95.50
51559;DHT22;61650;48.882;2.092;2023-04-01T02:47:28;9.10;95.10
51559;DHT22;61650;48.882;2.092;2023-04-01T02:49:53;9.10;94.90
51559;DHT22;61650;48.882;2.092;2023-04-01T02:52:32;9.10;93.30
51559;DHT22;61650;48.882;2.092;2023-04-01T02:54:58;9.20;94.00
51559;DHT22;61650;48.882;2.092;2023-04-01T02:57:24;9.20;92.60
51559;DHT22;61650;48.882;2.092;2023-04-01T02:59:50;9.20;92.90
51559;DHT22;61650;48.882;2.092;2023-04-01T03:02:16;9.20;91.60
51559;DHT22;61650;48.882;2.092;2023-04-01T03:04:42;9.20;92.50
51559;DHT22;61650;48.882;2.092;2023-04-01T03:07:08;9.30;91.90
51559;DHT22;61650;48.882;2.092;2023-04-01T03:09:35;9.20;92.60
51559;DHT22;61650;48.882;2.092;2023-04-01T03:12:01;9.20;93.20
51559;DHT22;61650;48.882;2.092;2023-04-01T03:14:27;9.20;93.10
51559;DHT22;61650;48.882;2.092;2023-04-01T03:16:52;9.20;92.30
51559;DHT22;61650;48.882;2.092;2023-04-01T03:19:19;9.20;92.70
51559;DHT22;61650;48.882;2.092;2023-04-01T03:21:45;9.20;93.20
51559;DHT22;61650;48.882;2.092;2023-04-01T03:24:10;9.10;93.60
51559;DHT22;61650;48.882;2.092;2023-04-01T03:26:36;9.10;94.10
51559;DHT22;61650;48.882;2.092;2023-04-01T03:29:01;9.10;94.40
51559;DHT22;61650;48.882;2.092;2023-04-01T03:31:27;9.10;93.80
51559;DHT22;61650;48.882;2.092;2023-04-01T03:33:53;9.10;94.40
51559;DHT22;61650;48.882;2.092;2023-04-01T03:36:18;9.10;94.30
51559;DHT22;61650;48.882;2.092;2023-04-01T03:38:44;9.10;94.60
51559;DHT22;61650;48.882;2.092;2023-04-01T03:41:15;9.10;93.90
51559;DHT22;61650;48.882;2.092;2023-04-01T03:43:41;9.20;91.10
51559;DHT22;61650;48.882;2.092;2023-04-01T03:46:07;9.30;91.30
51559;DHT22;61650;48.882;2.092;2023-04-01T03:48:33;9.30;90.30
51559;DHT22;61650;48.882;2.092;2023-04-01T03:50:58;9.40;89.40
51559;DHT22;61650;48.882;2.092;2023-04-01T03:53:24;9.40;88.50
51559;DHT22;61650;48.882;2.092;2023-04-01T03:55:50;9.50;89.10
51559;DHT22;61650;48.882;2.092;2023-04-01T03:58:17;9.50;89.40
51559;DHT22;61650;48.882;2.092;2023-04-01T04:00:43;9.60;87.60
51559;DHT22;61650;48.882;2.092;2023-04-01T04:03:08;9.50;87.60
51559;DHT22;61650;48.882;2.092;2023-04-01T04:05:34;9.50;88.20
51559;DHT22;61650;48.882;2.092;2023-04-01T04:08:00;9.50;88.60
51559;DHT22;61650;48.882;2.092;2023-04-01T04:10:26;9.40;88.90
51559;DHT22;61650;48.882;2.092;2023-04-01T04:12:52;9.50;88.20
51559;DHT22;61650;48.882;2.092;2023-04-01T04:15:17;9.50;88.60
51559;DHT22;61650;48.882;2.092;2023-04-01T04:17:47;9.50;88.70
51559;DHT22;61650;48.882;2.092;2023-04-01T04:20:12;9.60;86.70
51559;DHT22;61650;48.882;2.092;2023-04-01T04:22:38;9.70;86.30
51559;DHT22;61650;48.882;2.092;2023-04-01T04:25:04;9.70;86.80
51559;DHT22;61650;48.882;2.092;2023-04-01T04:27:30;9.70;86.50
51559;DHT22;61650;48.882;2.092;2023-04-01T04:29:56;9.70;86.30
51559;DHT22;61650;48.882;2.092;2023-04-01T04:32:21;9.70;86.10
51559;DHT22;61650;48.882;2.092;2023-04-01T04:34:47;9.70;85.60
51559;DHT22;61650;48.882;2.092;2023-04-01T04:37:12;9.80;85.20
51559;DHT22;61650;48.882;2.092;2023-04-01T04:39:38;9.80;84.50
51559;DHT22;61650;48.882;2.092;2023-04-01T04:42:05;9.80;85.10
51559;DHT22;61650;48.882;2.092;2023-04-01T04:44:30;9.80;84.60
51559;DHT22;61650;48.882;2.092;2023-04-01T04:46:56;9.80;84.80
51559;DHT22;61650;48.882;2.092;2023-04-01T04:49:21;9.80;84.80
51559;DHT22;61650;48.882;2.092;2023-04-01T04:51:47;9.80;83.40
51559;DHT22;61650;48.882;2.092;2023-04-01T04:54:13;9.90;83.40
51559;DHT22;61650;48.882;2.092;2023-04-01T04:56:38;9.90;83.70
51559;DHT22;61650;48.882;2.092;2023-04-01T04:59:05;9.80;83.40
51559;DHT22;61650;48.882;2.092;2023-04-01T05:01:31;9.80;82.90
51559;DHT22;61650;48.882;2.092;2023-04-01T05:03:58;9.80;82.40
51559;DHT22;61650;48.882;2.092;2023-04-01T05:06:24;9.90;83.70
51559;DHT22;61650;48.882;2.092;2023-04-01T05:08:51;9.80;82.60
51559;DHT22;61650;48.882;2.092;2023-04-01T05:11:18;9.90;82.20
51559;DHT22;61650;48.882;2.092;2023-04-01T05:13:45;9.90;82.70
51559;DHT22;61650;48.882;2.092;2023-04-01T05:16:12;9.80;82.80
51559;DHT22;61650;48.882;2.092;2023-04-01T05:18:38;9.90;81.90
51559;DHT22;61650;48.882;2.092;2023-04-01T05:21:04;9.90;82.00
51559;DHT22;61650;48.882;2.092;2023-04-01T05:23:32;9.90;81.80
51559;DHT22;61650;48.882;2.092;2023-04-01T05:25:59;9.80;82.50
51559;DHT22;61650;48.882;2.092;2023-04-01T05:28:27;9.80;82.70
51559;DHT22;61650;48.882;2.092;2023-04-01T05:30:53;9.80;82.30
51559;DHT22;61650;48.882;2.092;2023-04-01T05:33:18;9.80;82.20
51559;DHT22;61650;48.882;2.092;2023-04-01T05:35:44;9.70;82.50
51559;DHT22;61650;48.882;2.092;2023-04-01T05:38:09;9.70;82.50
51559;DHT22;61650;48.882;2.092;2023-04-01T05:40:35;9.80;81.90
51559;DHT22;61650;48.882;2.092;2023-04-01T05:43:01;9.70;81.60
51559;DHT22;61650;48.882;2.092;2023-04-01T05:45:27;9.70;82.20
51559;DHT22;61650;48.882;2.092;2023-04-01T05:47:54;9.70;81.40
51559;DHT22;61650;48.882;2.092;2023-04-01T05:50:20;9.70;81.70
51559;DHT22;61650;48.882;2.092;2023-04-01T05:52:46;9.80;81.20
51559;DHT22;61650;48.882;2.092;2023-04-01T05:55:11;9.70;81.60
51559;DHT22;61650;48.882;2.092;2023-04-01T05:57:37;9.70;81.70
51559;DHT22;61650;48.882;2.092;2023-04-01T06:00:04;9.70;81.00
51559;DHT22;61650;48.882;2.092;2023-04-01T06:02:30;9.70;82.40
51559;DHT22;61650;48.882;2.092;2023-04-01T06:05:22;9.70;81.40
51559;DHT22;61650;48.882;2.092;2023-04-01T06:07:48;9.70;82.20
51559;DHT22;61650;48.882;2.092;2023-04-01T06:10:18;9.70;82.70
51559;DHT22;61650;48.882;2.092;2023-04-01T06:15:39;9.70;82.30
51559;DHT22;61650;48.882;2.092;2023-04-01T06:23:43;9.70;81.00
51559;DHT22;61650;48.882;2.092;2023-04-01T06:26:44;9.70;81.30
51559;DHT22;61650;48.882;2.092;2023-04-01T06:42:42;9.80;80.30
51559;DHT22;61650;48.882;2.092;2023-04-01T06:54:03;9.80;79.70
51559;DHT22;61650;48.882;2.092;2023-04-01T06:56:30;9.90;79.90
51559;DHT22;61650;48.882;2.092;2023-04-01T06:59:03;9.90;79.50
51559;DHT22;61650;48.882;2.092;2023-04-01T07:01:44;9.90;80.30
51559;DHT22;61650;48.882;2.092;2023-04-01T07:04:30;9.90;80.10
51559;DHT22;61650;48.882;2.092;2023-04-01T07:06:59;9.90;80.80
51559;DHT22;61650;48.882;2.092;2023-04-01T07:09:39;9.90;79.90
51559;DHT22;61650;48.882;2.092;2023-04-01T07:12:27;9.90;80.40
51559;DHT22;61650;48.882;2.092;2023-04-01T07:14:58;9.90;80.30
51559;DHT22;61650;48.882;2.092;2023-04-01T07:17:30;9.90;79.70
51559;DHT22;61650;48.882;2.092;2023-04-01T07:22:33;10.10;79.40
51559;DHT22;61650;48.882;2.092;2023-04-01T07:25:05;10.20;78.10
51559;DHT22;61650;48.882;2.092;2023-04-01T07:27:31;10.30;77.80
51559;DHT22;61650;48.882;2.092;2023-04-01T07:29:57;10.40;78.30
51559;DHT22;61650;48.882;2.092;2023-04-01T07:32:54;10.40;77.80
51559;DHT22;61650;48.882;2.092;2023-04-01T07:35:30;10.40;77.60
51559;DHT22;61650;48.882;2.092;2023-04-01T07:41:10;10.50;77.90
51559;DHT22;61650;48.882;2.092;2023-04-01T07:46:51;10.50;77.60
51559;DHT22;61650;48.882;2.092;2023-04-01T07:55:20;10.90;76.60
51559;DHT22;61650;48.882;2.092;2023-04-01T08:08:46;10.90;73.90
51559;DHT22;61650;48.882;2.092;2023-04-01T08:11:31;11.00;73.80
51559;DHT22;61650;48.882;2.092;2023-04-01T08:17:02;11.20;73.00
51559;DHT22;61650;48.882;2.092;2023-04-01T08:19:37;11.20;73.50
51559;DHT22;61650;48.882;2.092;2023-04-01T08:22:11;11.30;71.90
51559;DHT22;61650;48.882;2.092;2023-04-01T08:24:42;11.40;72.00
51559;DHT22;61650;48.882;2.092;2023-04-01T08:27:28;11.40;71.50
51559;DHT22;61650;48.882;2.092;2023-04-01T08:32:35;11.50;69.40
51559;DHT22;61650;48.882;2.092;2023-04-01T08:37:40;11.50;70.70
51559;DHT22;61650;48.882;2.092;2023-04-01T08:40:41;11.50;70.10
51559;DHT22;61650;48.882;2.092;2023-04-01T08:43:16;11.50;69.20
51559;DHT22;61650;48.882;2.092;2023-04-01T08:49:03;11.50;71.90
51559;DHT22;61650;48.882;2.092;2023-04-01T08:57:13;11.40;70.90
51559;DHT22;61650;48.882;2.092;2023-04-01T08:59:55;11.60;72.40
51559;DHT22;61650;48.882;2.092;2023-04-01T09:05:29;11.80;70.90
51559;DHT22;61650;48.882;2.092;2023-04-01T09:14:06;11.60;69.90
51559;DHT22;61650;48.882;2.092;2023-04-01T09:25:46;11.60;70.30
51559;DHT22;61650;48.882;2.092;2023-04-01T09:28:28;11.70;69.60
51559;DHT22;61650;48.882;2.092;2023-04-01T09:44:36;12.00;66.50
51559;DHT22;61650;48.882;2.092;2023-04-01T10:06:27;12.90;62.70
51559;DHT22;61650;48.882;2.092;2023-04-01T10:22:58;13.20;59.70
51559;DHT22;61650;48.882;2.092;2023-04-01T10:28:31;13.00;57.70
51559;DHT22;61650;48.882;2.092;2023-04-01T10:36:59;12.90;58.80
51559;DHT22;61650;48.882;2.092;2023-04-01T10:56:36;13.20;57.10
51559;DHT22;61650;48.882;2.092;2023-04-01T11:10:57;14.00;55.30
51559;DHT22;61650;48.882;2.092;2023-04-01T11:31:19;13.00;58.40
51559;DHT22;61650;48.882;2.092;2023-04-01T11:39:57;13.50;57.30
51559;DHT22;61650;48.882;2.092;2023-04-01T11:42:54;13.50;57.00
51559;DHT22;61650;48.882;2.092;2023-04-01T11:59:51;15.90;52.00
51559;DHT22;61650;48.882;2.092;2023-04-01T12:10:20;17.30;51.00
51559;DHT22;61650;48.882;2.092;2023-04-01T12:13:14;17.20;49.80
51559;DHT22;61650;48.882;2.092;2023-04-01T12:15:58;17.20;50.30
51559;DHT22;61650;48.882;2.092;2023-04-01T12:18:40;17.30;50.30
51559;DHT22;61650;48.882;2.092;2023-04-01T12:21:17;16.40;49.20
51559;DHT22;61650;48.882;2.092;2023-04-01T12:26:27;15.10;52.60
51559;DHT22;61650;48.882;2.092;2023-04-01T12:29:03;15.10;51.90
51559;DHT22;61650;48.882;2.092;2023-04-01T12:40:51;15.70;50.00
51559;DHT22;61650;48.882;2.092;2023-04-01T12:46:14;17.60;50.10
51559;DHT22;61650;48.882;2.092;2023-04-01T12:57:59;19.20;44.90
51559;DHT22;61650;48.882;2.092;2023-04-01T13:09:03;16.70;53.70
51559;DHT22;61650;48.882;2.092;2023-04-01T13:22:45;19.00;44.10
51559;DHT22;61650;48.882;2.092;2023-04-01T13:28:29;15.60;51.00
51559;DHT22;61650;48.882;2.092;2023-04-01T13:31:04;15.60;51.60
51559;DHT22;61650;48.882;2.092;2023-04-01T13:33:40;16.10;49.70
51559;DHT22;61650;48.882;2.092;2023-04-01T13:36:24;16.30;49.80
51559;DHT22;61650;48.882;2.092;2023-04-01T14:01:29;14.20;63.40
51559;DHT22;61650;48.882;2.092;2023-04-01T14:04:34;14.00;64.20
51559;DHT22;61650;48.882;2.092;2023-04-01T14:07:16;13.90;59.40
51559;DHT22;61650;48.882;2.092;2023-04-01T14:10:18;14.00;60.60
51559;DHT22;61650;48.882;2.092;2023-04-01T14:18:26;14.30;53.00
51559;DHT22;61650;48.882;2.092;2023-04-01T14:29:15;14.50;54.00
51559;DHT22;61650;48.882;2.092;2023-04-01T14:43:54;14.90;52.20
51559;DHT22;61650;48.882;2.092;2023-04-01T14:49:05;14.60;52.20
51559;DHT22;61650;48.882;2.092;2023-04-01T14:51:40;14.50;52.60
51559;DHT22;61650;48.882;2.092;2023-04-01T14:54:16;14.20;53.90
51559;DHT22;61650;48.882;2.092;2023-04-01T14:56:50;14.20;56.40
51559;DHT22;61650;48.882;2.092;2023-04-01T15:04:52;13.80;57.70
51559;DHT22;61650;48.882;2.092;2023-04-01T15:29:58;11.00;90.10
51559;DHT22;61650;48.882;2.092;2023-04-01T15:54:58;10.00;93.30
51559;DHT22;61650;48.882;2.092;2023-04-01T16:05:35;9.90;99.90
51559;DHT22;61650;48.882;2.092;2023-04-01T16:13:32;9.90;99.90
51559;DHT22;61650;48.882;2.092;2023-04-01T16:16:13;10.00;99.90
51559;DHT22;61650;48.882;2.092;2023-04-01T16:24:39;10.10;96.60
51559;DHT22;61650;48.882;2.092;2023-04-01T16:30:24;10.10;94.60
51559;DHT22;61650;48.882;2.092;2023-04-01T16:35:44;10.10;94.00
51559;DHT22;61650;48.882;2.092;2023-04-01T16:41:14;10.10;94.70
51559;DHT22;61650;48.882;2.092;2023-04-01T16:46:41;10.20;91.90
51559;DHT22;61650;48.882;2.092;2023-04-01T16:57:17;10.10;89.30
51559;DHT22;61650;48.882;2.092;2023-04-01T16:59:54;10.00;87.40
51559;DHT22;61650;48.882;2.092;2023-04-01T17:02:31;10.10;86.80
51559;DHT22;61650;48.882;2.092;2023-04-01T17:05:11;10.00;86.70
51559;DHT22;61650;48.882;2.092;2023-04-01T17:10:39;10.00;86.90
51559;DHT22;61650;48.882;2.092;2023-04-01T17:42:15;9.40;92.70
51559;DHT22;61650;48.882;2.092;2023-04-01T17:44:56;9.30;94.80
51559;DHT22;61650;48.882;2.092;2023-04-01T17:58:20;9.30;95.30
51559;DHT22;61650;48.882;2.092;2023-04-01T18:06:44;9.40;96.40
51559;DHT22;61650;48.882;2.092;2023-04-01T18:12:32;9.30;96.40
51559;DHT22;61650;48.882;2.092;2023-04-01T18:15:27;9.40;94.30
51559;DHT22;61650;48.882;2.092;2023-04-01T18:18:25;9.40;94.80
51559;DHT22;61650;48.882;2.092;2023-04-01T18:23:53;9.50;94.80
51559;DHT22;61650;48.882;2.092;2023-04-01T18:26:32;9.50;95.70
51559;DHT22;61650;48.882;2.092;2023-04-01T18:32:27;9.60;94.20
51559;DHT22;61650;48.882;2.092;2023-04-01T18:35:44;9.50;94.10
51559;DHT22;61650;48.882;2.092;2023-04-01T18:37:55;9.60;93.70
51559;DHT22;61650;48.882;2.092;2023-04-01T18:43:16;9.60;91.50
51559;DHT22;61650;48.882;2.092;2023-04-01T18:45:53;9.60;91.80
51559;DHT22;61650;48.882;2.092;2023-04-01T18:48:46;9.60;92.10
51559;DHT22;61650;48.882;2.092;2023-04-01T18:51:23;9.60;91.90
51559;DHT22;61650;48.882;2.092;2023-04-01T18:54:05;9.60;93.00
51559;DHT22;61650;48.882;2.092;2023-04-01T18:56:41;9.60;92.40
51559;DHT22;61650;48.882;2.092;2023-04-01T19:02:36;9.70;93.70
51559;DHT22;61650;48.882;2.092;2023-04-01T19:05:18;9.70;91.70
51559;DHT22;61650;48.882;2.092;2023-04-01T19:07:50;9.70;92.40
51559;DHT22;61650;48.882;2.092;2023-04-01T19:10:35;9.70;91.50
51559;DHT22;61650;48.882;2.092;2023-04-01T19:13:16;9.70;92.70
51559;DHT22;61650;48.882;2.092;2023-04-01T19:15:49;9.70;90.70
51559;DHT22;61650;48.882;2.092;2023-04-01T19:21:10;9.70;90.30
51559;DHT22;61650;48.882;2.092;2023-04-01T19:36:59;9.70;91.80
51559;DHT22;61650;48.882;2.092;2023-04-01T19:39:59;9.70;91.20
51559;DHT22;61650;48.882;2.092;2023-04-01T19:53:31;9.70;91.10
51559;DHT22;61650;48.882;2.092;2023-04-01T20:01:04;9.70;92.20
51559;DHT22;61650;48.882;2.092;2023-04-01T20:17:29;9.60;93.50
51559;DHT22;61650;48.882;2.092;2023-04-01T20:25:27;9.60;93.90
51559;DHT22;61650;48.882;2.092;2023-04-01T20:35:50;9.60;94.40
51559;DHT22;61650;48.882;2.092;2023-04-01T20:49:32;9.60;92.50
51559;DHT22;61650;48.882;2.092;2023-04-01T20:54:52;9.60;90.00
51559;DHT22;61650;48.882;2.092;2023-04-01T20:57:50;9.60;92.80
51559;DHT22;61650;48.882;2.092;2023-04-01T21:09:08;9.60;90.30
51559;DHT22;61650;48.882;2.092;2023-04-01T21:11:56;9.60;89.60
51559;DHT22;61650;48.882;2.092;2023-04-01T21:14:54;9.60;91.20
51559;DHT22;61650;48.882;2.092;2023-04-01T21:20:49;9.60;90.20
51559;DHT22;61650;48.882;2.092;2023-04-01T21:26:19;9.60;90.10
51559;DHT22;61650;48.882;2.092;2023-04-01T21:29:11;9.50;88.80
51559;DHT22;61650;48.882;2.092;2023-04-01T21:32:15;9.50;89.30
51559;DHT22;61650;48.882;2.092;2023-04-01T21:42:37;9.40;89.50
51559;DHT22;61650;48.882;2.092;2023-04-01T21:45:29;9.40;90.60
51559;DHT22;61650;48.882;2.092;2023-04-01T21:59:07;9.30;89.60
51559;DHT22;61650;48.882;2.092;2023-04-01T22:04:29;9.30;90.60
51559;DHT22;61650;48.882;2.092;2023-04-01T22:18:13;9.20;87.60
51559;DHT22;61650;48.882;2.092;2023-04-01T22:20:54;9.20;88.80
51559;DHT22;61650;48.882;2.092;2023-04-01T22:23:43;9.20;88.30
51559;DHT22;61650;48.882;2.092;2023-04-01T22:26:27;9.20;88.80
51559;DHT22;61650;48.882;2.092;2023-04-01T22:28:56;9.20;88.80
51559;DHT22;61650;48.882;2.092;2023-04-01T22:31:30;9.20;88.60
51559;DHT22;61650;48.882;2.092;2023-04-01T22:34:40;9.20;90.10
51559;DHT22;61650;48.882;2.092;2023-04-01T22:37:10;9.20;90.70
51559;DHT22;61650;48.882;2.092;2023-04-01T22:40:02;9.20;90.00
51559;DHT22;61650;48.882;2.092;2023-04-01T22:42:47;9.20;89.20
51559;DHT22;61650;48.882;2.092;2023-04-01T22:48:29;9.20;87.50
51559;DHT22;61650;48.882;2.092;2023-04-01T22:53:47;9.20;87.70
51559;DHT22;61650;48.882;2.092;2023-04-01T22:56:35;9.20;86.20
51559;DHT22;61650;48.882;2.092;2023-04-01T22:59:13;9.20;88.30
51559;DHT22;61650;48.882;2.092;2023-04-01T23:01:49;9.20;87.40
51559;DHT22;61650;48.882;2.092;2023-04-01T23:04:23;9.10;87.90
51559;DHT22;61650;48.882;2.092;2023-04-01T23:06:56;9.10;88.70
51559;DHT22;61650;48.882;2.092;2023-04-01T23:09:37;9.10;89.50
51559;DHT22;61650;48.882;2.092;2023-04-01T23:12:09;9.00;88.30
51559;DHT22;61650;48.882;2.092;2023-04-01T23:14:54;9.00;87.80
51559;DHT22;61650;48.882;2.092;2023-04-01T23:17:47;9.10;86.80
51559;DHT22;61650;48.882;2.092;2023-04-01T23:20:53;9.10;88.40
51559;DHT22;61650;48.882;2.092;2023-04-01T23:31:27;9.00;88.70
51559;DHT22;61650;48.882;2.092;2023-04-01T23:34:00;8.90;87.20
51559;DHT22;61650;48.882;2.092;2023-04-01T23:36:27;8.90;87.90
51559;DHT22;61650;48.882;2.092;2023-04-01T23:38:53;8.90;86.70
51559;DHT22;61650;48.882;2.092;2023-04-01T23:41:28;8.90;86.50
51559;DHT22;61650;48.882;2.092;2023-04-01T23:46:27;8.90;88.10
51559;DHT22;61650;48.882;2.092;2023-04-01T23:48:55;8.90;86.00
51559;DHT22;61650;48.882;2.092;2023-04-01T23:51:29;8.80;86.20
51559;DHT22;61650;48.882;2.092;2023-04-01T23:54:14;8.80;86.90
51559;DHT22;61650;48.882;2.092;2023-04-01T23:56:52;8.90;86.30
51559;DHT22;61650;48.882;2.092;2023-04-01T23:59:24;8.80;84.30
